Time;durP1;ratioP1;P1;durP2;ratioP2;P2;SDS_P1;SDS_P2;PMS_P1;PMS_P2;Temp;Humidity;BMP_temperature;BMP_pressure;BME280_temperature;BME280_humidity;BME280_pressure;Samples;Min_cycle;Max_cycle;Signal;HPM_P1;HPM_P2
2022/10/04 00:00:37;;;;;;;7.50;3.10;;;;;;;-141.97;56.77;47584.44;5039244;28;20189;-85
2022/10/04 00:03:10;;;;;;;5.03;3.13;;;;;;;-141.97;56.78;47615.19;5037878;28;20162;-86
2022/10/04 00:05:37;;;;;;;6.27;3.30;;;;;;;-141.97;56.58;47572.91;5032762;28;20224;-85
2022/10/04 00:08:20;;;;;;;3.67;2.57;;;;;;;-141.97;56.71;47578.66;5035073;28;20202;-85
2022/10/04 00:10:46;;;;;;;5.07;2.90;;;;;;;-141.97;56.89;47563.28;5052186;28;20174;-85
2022/10/04 00:13:22;;;;;;;4.10;3.10;;;;;;;-141.97;57.17;47594.03;5034877;28;20181;-85
2022/10/04 00:15:49;;;;;;;3.17;2.50;;;;;;;-141.97;57.47;47511.38;5034953;28;20173;-85
2022/10/04 00:18:38;;;;;;;5.23;3.50;;;;;;;-141.97;57.89;47592.13;5035912;28;20163;-85
2022/10/04 00:21:05;;;;;;;4.30;2.97;;;;;;;-141.97;58.40;47532.53;5036246;28;20174;-86
2022/10/04 00:23:36;;;;;;;5.90;2.87;;;;;;;-141.97;58.81;47599.81;5036162;28;20169;-85
2022/10/04 00:26:05;;;;;;;4.07;2.80;;;;;;;-141.97;58.59;47572.91;5035863;28;20249;-85
2022/10/04 00:28:36;;;;;;;4.43;3.27;;;;;;;-141.97;58.68;47538.28;5035022;28;20181;-84
2022/10/04 00:31:21;;;;;;;4.60;3.30;;;;;;;-141.97;58.74;47584.44;5036004;28;20657;-84
2022/10/04 00:33:53;;;;;;;5.67;3.43;;;;;;;-141.97;58.85;47699.75;5036045;28;20167;-84
2022/10/04 00:36:22;;;;;;;6.33;3.37;;;;;;;-141.97;59.17;47588.28;5035889;28;20213;-83
2022/10/04 00:39:03;;;;;;;5.80;3.33;;;;;;;-141.97;59.63;47590.19;5036277;28;20169;-84
2022/10/04 00:41:37;;;;;;;7.17;3.47;;;;;;;-141.97;60.38;47461.41;5036490;28;20215;-84
2022/10/04 00:44:09;;;;;;;5.83;3.40;;;;;;;-141.97;60.83;47561.38;5035513;28;20174;-84
2022/10/04 00:46:38;;;;;;;5.00;3.70;;;;;;;-141.97;61.34;47557.53;5036184;28;20194;-84
2022/10/04 00:49:08;;;;;;;4.07;3.40;;;;;;;-141.97;61.57;47509.47;5035821;28;20170;-84
2022/10/04 00:51:42;;;;;;;5.33;3.33;;;;;;;-141.97;61.42;47482.56;5035925;28;20173;-84
2022/10/04 00:54:18;;;;;;;5.27;3.30;;;;;;;-141.97;61.52;47534.44;5034659;28;20169;-84
2022/10/04 00:57:11;;;;;;;3.87;3.10;;;;;;;-141.97;61.54;47711.28;5035399;28;20154;-84
2022/10/04 00:59:47;;;;;;;4.53;3.40;;;;;;;-141.97;61.58;47592.13;5035890;28;20552;-85
2022/10/04 01:02:32;;;;;;;4.87;3.23;;;;;;;-141.97;61.26;47699.75;5035796;28;20166;-84
2022/10/04 01:05:03;;;;;;;4.73;3.40;;;;;;;-141.97;61.28;47563.28;5034838;28;20308;-84
2022/10/04 01:07:39;;;;;;;6.63;3.80;;;;;;;-141.97;61.08;47557.53;5050609;28;20181;-84
2022/10/04 01:10:13;;;;;;;4.93;3.50;;;;;;;-141.97;61.39;47594.03;5036177;28;20162;-85
2022/10/04 01:13:18;;;;;;;3.90;3.30;;;;;;;-141.97;61.70;47549.84;5035095;28;20178;-85
2022/10/04 01:15:53;;;;;;;4.37;3.00;;;;;;;-141.97;61.46;47586.34;5012998;28;20182;-84
2022/10/04 01:18:18;;;;;;;4.90;3.30;;;;;;;-141.97;61.39;47551.75;5013230;28;20177;-84
2022/10/04 01:21:22;;;;;;;3.63;3.27;;;;;;;-141.97;60.99;47578.66;5013307;28;20620;-84
2022/10/04 01:23:56;;;;;;;4.80;3.47;;;;;;;-141.97;61.06;47570.97;4955553;29;20570;-84
2022/10/04 01:26:43;;;;;;;6.00;3.20;;;;;;;-141.97;60.99;47565.22;4955144;29;20287;-84
2022/10/04 01:29:27;;;;;;;3.13;2.43;;;;;;;-141.97;60.86;47586.34;4955342;29;20188;-85
2022/10/04 01:31:54;;;;;;;4.97;3.60;;;;;;;-141.97;61.25;47599.81;4954298;29;20180;-84
2022/10/04 01:34:23;;;;;;;7.00;3.30;;;;;;;-141.97;61.04;47526.75;4954696;29;20284;-84
2022/10/04 01:36:51;;;;;;;4.50;3.40;;;;;;;-141.97;61.22;47603.66;4955081;29;20169;-84
2022/10/04 01:39:18;;;;;;;4.50;3.50;;;;;;;-141.97;61.08;47561.38;4938641;29;20193;-85
2022/10/04 01:42:25;;;;;;;4.50;3.23;;;;;;;-141.97;60.77;47580.59;4954966;29;20193;-85
2022/10/04 01:44:57;;;;;;;4.50;3.20;;;;;;;-141.97;61.48;47584.44;4897008;29;20187;-85
2022/10/04 01:47:29;;;;;;;5.53;3.40;;;;;;;-141.97;61.28;47478.72;4896574;29;20656;-84
2022/10/04 01:49:58;;;;;;;5.33;3.50;;;;;;;-141.97;61.68;47561.38;4895913;29;20258;-83
2022/10/04 01:52:34;;;;;;;5.70;3.20;;;;;;;-141.97;61.76;47617.09;4894700;29;20289;-83
2022/10/04 01:55:13;;;;;;;5.90;3.40;;;;;;;-141.97;62.09;47707.44;4896332;29;20754;-83
2022/10/04 01:57:52;;;;;;;4.03;3.50;;;;;;;-141.97;61.84;47576.75;4896353;29;20198;-82
2022/10/04 02:00:20;;;;;;;3.60;3.10;;;;;;;-141.97;61.51;47542.16;4918943;28;20184;-85
2022/10/04 02:02:46;;;;;;;3.00;2.70;;;;;;;-141.97;61.22;47584.44;4967664;28;20221;-86
2022/10/04 02:05:15;;;;;;;4.90;3.00;;;;;;;-141.97;61.38;47588.28;4953978;29;20631;-86
2022/10/04 02:07:42;;;;;;;5.17;3.20;;;;;;;-141.97;61.27;47572.91;4954084;29;20235;-84
2022/10/04 02:10:17;;;;;;;5.00;3.30;;;;;;;-141.97;61.66;47561.38;4953982;29;20544;-85
2022/10/04 02:12:46;;;;;;;5.03;3.77;;;;;;;-141.97;61.96;47594.03;4937829;29;20219;-86
2022/10/04 02:15:12;;;;;;;4.60;3.30;;;;;;;-141.97;62.22;47653.63;4953980;29;20288;-85
2022/10/04 02:17:41;;;;;;;6.07;3.53;;;;;;;-141.97;62.99;47569.06;4937499;29;20179;-84
2022/10/04 02:20:22;;;;;;;4.37;3.60;;;;;;;-141.97;63.26;47588.28;4952472;29;20176;-84
2022/10/04 02:22:51;;;;;;;3.93;3.37;;;;;;;-141.97;63.52;47590.19;5012804;28;20171;-85
2022/10/04 02:25:18;;;;;;;7.53;4.33;;;;;;;-141.97;63.39;47574.81;5011682;28;20268;-86
2022/10/04 02:27:44;;;;;;;4.57;3.53;;;;;;;-141.97;63.16;47595.97;5013203;28;20174;-85
2022/10/04 02:30:12;;;;;;;5.47;3.53;;;;;;;-141.97;63.27;47576.75;5011445;28;20178;-85
2022/10/04 02:32:58;;;;;;;6.23;3.80;;;;;;;-141.97;63.30;47496.00;5011874;28;20173;-86
2022/10/04 02:35:28;;;;;;;4.93;3.63;;;;;;;-141.97;64.11;47576.75;5013421;28;20183;-85
2022/10/04 02:38:03;;;;;;;7.53;4.70;;;;;;;-141.97;63.69;47584.44;5013069;28;20163;-86
2022/10/04 02:40:39;;;;;;;7.10;4.30;;;;;;;-141.97;62.82;47615.19;5013024;28;20170;-86
2022/10/04 02:43:14;;;;;;;5.20;4.20;;;;;;;-141.97;62.09;47565.22;5017952;28;20198;-85
2022/10/04 02:45:51;;;;;;;5.37;4.47;;;;;;;-141.97;61.85;47599.81;5021668;28;20671;-85
2022/10/04 02:48:33;;;;;;;5.60;4.33;;;;;;;-141.97;61.88;47720.91;5014299;28;20170;-85
2022/10/04 02:51:17;;;;;;;5.50;4.27;;;;;;;-141.97;61.50;47636.31;5014455;28;20308;-85
2022/10/04 02:54:15;;;;;;;6.07;4.20;;;;;;;-141.97;61.81;47603.66;5013016;28;20194;-85
2022/10/04 02:56:41;;;;;;;5.87;4.50;;;;;;;-141.97;61.28;47432.59;4991208;28;20183;-84
2022/10/04 02:59:15;;;;;;;6.23;4.20;;;;;;;-141.97;61.04;47626.72;4990889;28;20171;-85
2022/10/04 03:02:00;;;;;;;5.03;4.20;;;;;;;-141.97;60.78;47620.94;4991401;28;20171;-86
2022/10/04 03:04:38;;;;;;;6.87;4.10;;;;;;;-141.97;60.78;47578.66;4992109;28;20182;-84
2022/10/04 03:07:07;;;;;;;4.50;3.73;;;;;;;-141.97;60.33;47592.13;4991681;28;20226;-88
2022/10/04 03:09:35;;;;;;;5.00;3.93;;;;;;;-141.97;60.67;47582.50;4991231;28;20246;-84
2022/10/04 03:12:03;;;;;;;4.70;2.90;;;;;;;-141.97;60.73;47449.88;4991403;28;20164;-85
2022/10/04 03:14:30;;;;;;;5.17;3.60;;;;;;;-141.97;60.58;47647.84;4990842;28;20168;-85
2022/10/04 03:16:59;;;;;;;6.37;3.70;;;;;;;-141.97;60.57;47559.44;4990593;28;20164;-85
2022/10/04 03:19:28;;;;;;;5.40;3.67;;;;;;;-141.97;60.58;47484.47;4991168;28;20194;-84
2022/10/04 03:21:58;;;;;;;5.63;3.73;;;;;;;-141.97;60.58;47426.81;4992771;28;20206;-86
2022/10/04 03:24:42;;;;;;;5.60;3.70;;;;;;;-141.97;60.66;47576.75;4990679;28;20170;-87
2022/10/04 03:27:13;;;;;;;4.07;3.40;;;;;;;-141.97;60.38;47549.84;4974322;28;20366;-86
2022/10/04 03:29:42;;;;;;;3.97;3.37;;;;;;;-141.97;60.18;47576.75;4974396;28;20179;-85
2022/10/04 03:32:13;;;;;;;5.23;3.67;;;;;;;-141.97;60.08;47624.78;4989473;28;20237;-86
2022/10/04 03:34:42;;;;;;;3.90;3.03;;;;;;;-141.97;59.93;47522.91;5014384;28;20181;-86
2022/10/04 03:37:15;;;;;;;3.83;3.43;;;;;;;-141.97;60.05;47438.34;5019397;28;20155;-85
2022/10/04 03:39:46;;;;;;;4.67;2.93;;;;;;;-141.97;60.15;47667.06;5018011;28;20696;-86
2022/10/04 03:42:21;;;;;;;4.43;3.20;;;;;;;-141.97;59.83;47590.19;5013599;28;20203;-86
2022/10/04 03:44:49;;;;;;;5.13;4.00;;;;;;;-141.97;59.68;47597.88;5017331;28;20173;-86
2022/10/04 03:47:20;;;;;;;7.20;3.90;;;;;;;-141.97;59.86;47444.13;5017717;28;20229;-86
2022/10/04 03:49:48;;;;;;;4.30;3.20;;;;;;;-141.97;59.49;47594.03;5017904;28;20167;-87
2022/10/04 03:52:40;;;;;;;5.40;3.70;;;;;;;-141.97;59.68;47726.66;5017390;28;20159;-85
2022/10/04 03:55:07;;;;;;;6.03;3.60;;;;;;;-141.97;59.54;47655.53;5016520;28;20197;-86
2022/10/04 03:57:35;;;;;;;3.93;3.20;;;;;;;-141.97;59.91;47567.13;5016372;28;20178;-85
2022/10/04 04:00:04;;;;;;;7.77;3.87;;;;;;;-141.97;59.92;47442.19;5018163;28;20163;-86
2022/10/04 04:02:34;;;;;;;7.40;4.00;;;;;;;-141.97;60.15;47601.72;5033336;28;20179;-86
2022/10/04 04:05:09;;;;;;;4.37;3.73;;;;;;;-141.97;60.47;47519.06;5017974;28;20171;-86
2022/10/04 04:07:45;;;;;;;4.30;3.90;;;;;;;-141.97;60.72;47615.19;5037083;28;20165;-86
2022/10/04 04:10:29;;;;;;;4.97;4.00;;;;;;;-141.97;60.58;47563.28;5036778;28;20165;-85
2022/10/04 04:13:10;;;;;;;4.90;3.67;;;;;;;-141.97;60.61;47511.38;5034818;28;20602;-86
2022/10/04 04:15:41;;;;;;;8.03;3.90;;;;;;;-141.97;60.83;47505.63;5034611;28;20645;-85
2022/10/04 04:18:19;;;;;;;5.20;4.00;;;;;;;-141.97;60.75;47588.28;5036186;28;20162;-85
2022/10/04 04:20:45;;;;;;;6.20;4.10;;;;;;;-141.97;60.81;47619.03;5035196;28;20251;-85
2022/10/04 04:23:13;;;;;;;7.67;3.97;;;;;;;-141.97;60.62;47615.19;5039507;28;20170;-85
2022/10/04 04:25:43;;;;;;;5.57;3.63;;;;;;;-141.97;59.99;47592.13;5036208;28;20233;-85
2022/10/04 04:28:32;;;;;;;4.77;3.60;;;;;;;-141.97;59.92;47592.13;5035265;28;20190;-85
2022/10/04 04:31:06;;;;;;;7.33;3.87;;;;;;;-141.97;59.70;47592.13;5034791;28;20642;-85
2022/10/04 04:33:34;;;;;;;5.63;3.93;;;;;;;-141.97;59.09;47572.91;5035359;28;20175;-85
2022/10/04 04:36:09;;;;;;;6.13;3.70;;;;;;;-141.97;58.42;47570.97;5035503;28;20161;-85
2022/10/04 04:39:32;;;;;;;5.00;3.83;;;;;;;-141.97;58.39;47557.53;5035726;28;20154;-86
2022/10/04 04:41:22;;;;;;;4.87;3.77;;;;;;;-141.97;58.25;47440.28;5037737;28;20166;-86
2022/10/04 04:43:47;;;;;;;5.03;4.33;;;;;;;-141.97;58.30;47515.22;5033969;28;20705;-86
2022/10/04 04:46:13;;;;;;;4.67;3.57;;;;;;;-141.97;58.40;47376.84;5033947;28;20284;-86
2022/10/04 04:48:43;;;;;;;5.47;3.27;;;;;;;-141.97;58.10;47563.28;5034017;28;20212;-86
2022/10/04 04:51:19;;;;;;;7.40;3.13;;;;;;;-141.97;57.60;47499.84;5050959;28;20170;-86
2022/10/04 04:53:46;;;;;;;5.90;3.53;;;;;;;-141.97;57.44;47582.50;5035425;28;20170;-86
2022/10/04 04:56:18;;;;;;;4.07;3.20;;;;;;;-141.97;57.07;47524.84;5034621;28;20562;-86
2022/10/04 04:58:47;;;;;;;4.00;2.87;;;;;;;-141.97;56.48;47595.97;5014985;28;20265;-85
2022/10/04 05:01:34;;;;;;;5.20;3.07;;;;;;;-141.97;55.93;47576.75;5030258;28;20233;-85
2022/10/04 05:04:04;;;;;;;5.37;3.40;;;;;;;-141.97;55.50;47584.44;5014364;28;20301;-86
2022/10/04 05:06:32;;;;;;;4.90;3.00;;;;;;;-141.97;55.11;47588.28;5020511;28;20273;-86
2022/10/04 05:08:58;;;;;;;4.20;3.20;;;;;;;-141.97;54.80;47736.28;5041741;28;20378;-87
2022/10/04 05:11:30;;;;;;;6.30;3.60;;;;;;;-141.97;54.41;47501.78;5056679;28;20181;-86
2022/10/04 05:14:07;;;;;;;8.53;3.30;;;;;;;-141.97;54.23;47542.16;5055282;28;20196;-87
2022/10/04 05:16:36;;;;;;;6.77;3.60;;;;;;;-141.97;54.02;47561.38;5054396;28;20258;-86
2022/10/04 05:19:12;;;;;;;4.47;3.20;;;;;;;-141.97;53.82;47647.84;5071375;28;20276;-85
2022/10/04 05:21:43;;;;;;;3.90;3.20;;;;;;;-141.97;53.75;47553.69;5055735;28;20641;-85
2022/10/04 05:24:30;;;;;;;7.63;3.73;;;;;;;-141.97;53.00;47622.88;5056001;28;20193;-85
2022/10/04 05:27:03;;;;;;;6.00;3.47;;;;;;;-141.97;52.36;47559.44;5056875;28;20228;-85
2022/10/04 05:29:36;;;;;;;3.90;3.20;;;;;;;-141.97;51.62;47544.06;5055840;28;20216;-85
2022/10/04 05:32:23;;;;;;;6.60;2.97;;;;;;;-141.97;51.26;47584.44;5071517;28;20275;-85
2022/10/04 05:34:50;;;;;;;11.67;5.90;;;;;;;-141.97;51.44;47711.28;5077459;28;20272;-85
2022/10/04 05:37:24;;;;;;;6.27;4.80;;;;;;;-141.97;50.98;47572.91;5055931;28;20645;-84
2022/10/04 05:40:04;;;;;;;13.80;8.23;;;;;;;-141.97;50.80;47588.28;5037012;28;20300;-88
2022/10/04 05:42:40;;;;;;;4.33;3.40;;;;;;;-141.97;50.76;47457.56;5046657;28;20223;-87
2022/10/04 05:45:11;;;;;;;5.20;3.03;;;;;;;-141.97;50.78;47580.59;5054927;28;20180;-86
2022/10/04 05:47:41;;;;;;;3.10;2.80;;;;;;;-141.97;51.32;47584.44;5054567;28;20185;-86
2022/10/04 05:50:16;;;;;;;3.37;2.80;;;;;;;-141.97;51.55;47557.53;5051441;28;20243;-85
2022/10/04 05:52:42;;;;;;;4.40;3.43;;;;;;;-141.97;51.48;47553.69;5054841;28;20197;-85
2022/10/04 05:55:20;;;;;;;5.10;4.07;;;;;;;-141.97;51.09;47398.00;5052615;28;20703;-87
2022/10/04 05:58:20;;;;;;;5.77;3.67;;;;;;;-141.97;51.76;47595.97;5053089;28;20500;-85
2022/10/04 06:01:01;;;;;;;4.03;3.10;;;;;;;-141.97;51.13;47576.75;5046968;28;20181;-86
2022/10/04 06:03:29;;;;;;;4.80;3.20;;;;;;;-141.97;51.42;47555.59;5055320;28;20181;-86
2022/10/04 06:06:02;;;;;;;3.77;2.90;;;;;;;-141.97;51.65;47549.84;5054196;28;20268;-86
2022/10/04 06:08:42;;;;;;;5.80;3.60;;;;;;;-141.97;51.41;47672.84;5043215;28;20239;-86
2022/10/04 06:11:34;;;;;;;9.67;5.13;;;;;;;-141.97;51.54;47586.34;5055805;28;20182;-85
2022/10/04 06:14:02;;;;;;;4.43;3.10;;;;;;;-141.97;51.97;47580.59;4973136;28;20203;-86
2022/10/04 06:16:59;;;;;;;4.73;3.40;;;;;;;-141.97;51.46;47570.97;4973481;28;20210;-84
2022/10/04 06:19:45;;;;;;;4.40;3.27;;;;;;;-141.97;51.71;47576.75;4938505;29;20200;-86
2022/10/04 06:22:18;;;;;;;5.67;4.80;;;;;;;-141.97;51.57;47574.81;4940569;29;20191;-86
2022/10/04 06:25:12;;;;;;;7.87;3.60;;;;;;;-141.97;51.65;47640.16;4936351;29;20256;-86
2022/10/04 06:27:43;;;;;;;7.73;4.03;;;;;;;-141.97;51.15;47578.66;4935274;29;20243;-84
2022/10/04 06:30:17;;;;;;;7.93;5.00;;;;;;;-141.97;51.06;47613.25;4917353;29;20225;-83
2022/10/04 06:33:18;;;;;;;4.03;3.07;;;;;;;-141.97;51.01;47594.03;4933356;29;20212;-82
2022/10/04 06:35:52;;;;;;;5.03;3.20;;;;;;;-141.97;51.30;47584.44;4877393;29;20198;-83
2022/10/04 06:38:50;;;;;;;6.70;3.33;;;;;;;-141.97;51.13;47607.50;4877641;29;20210;-85
2022/10/04 06:41:41;;;;;;;3.77;2.97;;;;;;;-141.97;50.72;47557.53;4821601;29;20206;-84
2022/10/04 06:44:29;;;;;;;4.97;3.20;;;;;;;-141.97;50.92;47563.28;4823022;29;20228;-84
2022/10/04 06:47:07;;;;;;;4.97;3.20;;;;;;;-141.97;51.03;47597.88;4815211;29;20247;-84
2022/10/04 06:49:56;;;;;;;5.03;3.57;;;;;;;-141.97;50.81;47611.34;4820208;29;20205;-84
2022/10/04 06:55:24;;;;;;;5.07;3.50;;;;;;;-141.97;50.26;47569.06;5025556;23;20234;-78
2022/10/04 06:58:16;;;;;;;5.07;3.50;;;;;;;-141.97;49.65;47551.75;4967318;28;20321;-78
2022/10/04 07:00:49;;;;;;;7.20;3.30;;;;;;;-141.97;49.96;47588.28;5001389;28;20241;-77
2022/10/04 07:03:23;;;;;;;7.13;3.60;;;;;;;-141.97;49.79;47672.84;4992590;28;20182;-77
2022/10/04 07:06:00;;;;;;;7.47;3.77;;;;;;;-141.97;49.42;47584.44;4991071;28;20237;-76
2022/10/04 07:08:29;;;;;;;6.13;3.33;;;;;;;-141.97;48.55;47592.13;4991185;28;20234;-77
2022/10/04 07:11:24;;;;;;;6.93;3.50;;;;;;;-141.97;48.92;47569.06;4990347;28;20241;-78
2022/10/04 07:14:02;;;;;;;3.77;3.10;;;;;;;-141.97;48.12;47565.22;4950262;29;20197;-78
2022/10/04 07:16:27;;;;;;;4.30;3.20;;;;;;;-141.97;47.57;47603.66;4944108;29;20649;-78
2022/10/04 07:19:31;;;;;;;7.67;3.50;;;;;;;-141.97;47.63;47584.44;4934446;29;20185;-77
2022/10/04 07:22:06;;;;;;;3.87;2.73;;;;;;;-141.97;47.35;47546.00;4931084;29;20183;-78
2022/10/04 07:24:41;;;;;;;4.80;3.80;;;;;;;-141.97;47.91;47567.13;4930727;29;20217;-78
2022/10/04 07:27:14;;;;;;;4.60;3.70;;;;;;;-141.97;46.76;47599.81;4911311;29;20891;-78
2022/10/04 07:29:45;;;;;;;6.17;3.20;;;;;;;-141.97;45.92;47599.81;4927509;29;20196;-78
2022/10/04 07:32:19;;;;;;;5.50;3.23;;;;;;;-141.97;46.24;47563.28;4912361;29;20201;-79
2022/10/04 07:34:56;;;;;;;5.23;3.07;;;;;;;-141.97;46.39;47538.28;4911976;29;20178;-78
2022/10/04 07:37:25;;;;;;;5.23;3.20;;;;;;;-141.97;46.25;47569.06;4928820;29;20295;-79
2022/10/04 07:40:07;;;;;;;3.77;3.00;;;;;;;-141.97;46.30;47592.13;4931076;29;20668;-79
2022/10/04 07:42:45;;;;;;;5.43;3.00;;;;;;;-141.97;45.90;47553.69;4895998;29;20286;-79
2022/10/04 07:45:22;;;;;;;6.80;3.50;;;;;;;-141.97;44.86;47592.13;4912407;29;20209;-79
2022/10/04 07:47:48;;;;;;;8.03;3.70;;;;;;;-141.97;43.56;47546.00;4912385;29;20178;-79
2022/10/04 07:50:21;;;;;;;5.77;3.20;;;;;;;-141.97;43.59;47553.69;4922099;29;21039;-79
2022/10/04 07:52:51;;;;;;;5.30;3.30;;;;;;;-141.97;43.68;47576.75;4953755;28;20252;-78
2022/10/04 07:55:36;;;;;;;3.97;3.00;;;;;;;-141.97;43.35;47563.28;4971628;28;20234;-79
2022/10/04 07:58:33;;;;;;;6.33;3.20;;;;;;;-141.97;42.93;47576.75;4961623;28;20239;-79
2022/10/04 08:01:24;;;;;;;3.83;3.07;;;;;;;-141.97;42.69;47549.84;4919229;29;20213;-79
2022/10/04 08:04:20;;;;;;;5.23;2.80;;;;;;;-141.97;42.63;47574.81;4929978;29;20201;-79
2022/10/04 08:06:58;;;;;;;3.20;2.17;;;;;;;-141.97;41.02;47538.28;4930779;29;20680;-79
2022/10/04 08:09:53;;;;;;;4.70;2.60;;;;;;;-141.97;40.84;47557.53;4931239;29;20204;-79
2022/10/04 08:12:43;;;;;;;5.80;2.60;;;;;;;-141.97;39.94;47546.00;4930958;29;20300;-79
2022/10/04 08:15:27;;;;;;;4.53;2.30;;;;;;;-141.97;40.40;47549.84;4930570;29;20185;-78
2022/10/04 08:18:16;;;;;;;5.47;2.23;;;;;;;-141.97;38.98;47542.16;4926308;29;20206;-79
2022/10/04 08:20:55;;;;;;;2.07;1.80;;;;;;;-141.97;38.49;47511.38;4924830;29;20244;-78
2022/10/04 08:23:46;;;;;;;3.33;2.00;;;;;;;-141.97;37.83;47524.84;4921288;29;20279;-78
2022/10/04 08:26:39;;;;;;;2.30;1.80;;;;;;;-141.97;38.52;47530.59;4931312;29;20205;-78
2022/10/04 08:32:09;;;;;;;2.60;1.83;;;;;;;-141.97;38.54;47557.53;4934598;29;20212;-78
2022/10/04 08:34:42;;;;;;;2.63;1.70;;;;;;;-141.97;38.32;47544.06;4934120;29;20918;-78
2022/10/04 08:37:08;;;;;;;3.57;2.00;;;;;;;-141.97;38.08;47534.44;4963623;28;20187;-78
2022/10/04 08:39:49;;;;;;;2.00;1.80;;;;;;;-141.97;38.02;47557.53;4974945;28;20203;-79
2022/10/04 08:42:32;;;;;;;4.10;1.90;;;;;;;-141.97;38.47;47586.34;4974990;28;20176;-77
2022/10/04 08:45:16;;;;;;;3.67;2.10;;;;;;;-141.97;37.39;47536.38;4975156;28;20180;-78
2022/10/04 08:48:10;;;;;;;3.53;2.27;;;;;;;-141.97;36.62;47557.53;4974771;28;20164;-79
2022/10/04 08:51:12;;;;;;;3.13;1.77;;;;;;;-141.97;36.89;47570.97;4970588;28;20440;-77
2022/10/04 08:53:47;;;;;;;2.63;1.60;;;;;;;-141.97;37.08;47532.53;4963627;28;20659;-78
2022/10/04 08:56:55;;;;;;;5.47;2.50;;;;;;;-141.97;36.44;47494.09;4974855;28;20179;-79
2022/10/04 09:00:03;;;;;;;3.87;2.13;;;;;;;-141.97;35.75;47536.38;4924551;29;20259;-77
2022/10/04 09:02:56;;;;;;;6.40;4.37;;;;;;;-141.97;35.11;47503.69;4913991;29;20201;-79
2022/10/04 09:05:37;;;;;;;3.00;2.17;;;;;;;-141.97;36.17;47626.72;4914762;29;20217;-78
2022/10/04 09:08:38;;;;;;;12.13;4.93;;;;;;;-141.97;36.35;47546.00;4906466;29;20233;-78
2022/10/04 09:11:24;;;;;;;5.70;3.10;;;;;;;-141.97;36.79;47534.44;4858076;29;20199;-78
2022/10/04 09:14:47;;;;;;;2.93;2.30;;;;;;;-141.97;37.38;47553.69;4858642;29;20192;-78
2022/10/04 09:17:45;;;;;;;6.43;4.47;;;;;;;-141.97;36.67;47507.53;4818188;29;20190;-78
2022/10/04 09:20:32;;;;;;;4.70;2.50;;;;;;;-141.97;35.62;47542.16;4816277;29;20201;-80
2022/10/04 09:23:36;;;;;;;2.87;1.70;;;;;;;-141.97;36.24;47515.22;4821666;29;20200;-79
2022/10/04 09:26:35;;;;;;;29.90;16.30;;;;;;;-141.97;35.67;47524.84;4821367;29;20231;-80
2022/10/04 09:29:31;;;;;;;13.57;8.37;;;;;;;-141.97;34.79;47538.28;4821059;29;20236;-79
2022/10/04 09:32:21;;;;;;;6.40;3.80;;;;;;;-141.97;34.42;47496.00;4821284;29;20205;-79
2022/10/04 09:35:18;;;;;;;7.47;5.63;;;;;;;-141.97;34.53;47465.25;4821542;29;20280;-80
2022/10/04 09:38:28;;;;;;;19.50;10.63;;;;;;;-141.97;34.85;47528.69;4821799;29;20189;-79
2022/10/04 09:41:28;;;;;;;26.37;16.17;;;;;;;-141.97;35.11;47513.31;4856876;29;20200;-79
2022/10/04 09:44:16;;;;;;;9.13;5.50;;;;;;;-141.97;34.77;47551.75;4767805;30;20282;-79
2022/10/04 09:46:54;;;;;;;2.30;2.10;;;;;;;-141.97;34.54;47507.53;4765763;30;20229;-79
2022/10/04 09:49:36;;;;;;;2.87;1.80;;;;;;;-141.97;34.85;47532.53;4839341;29;20192;-78
2022/10/04 09:52:22;;;;;;;2.20;1.80;;;;;;;-141.97;34.27;47534.44;4839233;29;20193;-79
2022/10/04 09:54:55;;;;;;;3.70;2.80;;;;;;;-141.97;33.85;47519.06;4839014;29;20216;-79
2022/10/04 09:57:40;;;;;;;1.70;1.60;;;;;;;-141.97;34.56;47492.16;4839010;29;20721;-79
2022/10/04 10:00:23;;;;;;;3.17;1.80;;;;;;;-141.97;36.04;47532.53;4830031;29;20732;-77
2022/10/04 10:03:42;;;;;;;3.90;2.20;;;;;;;-141.97;35.85;47524.84;4839172;29;20356;-78
2022/10/04 10:06:29;;;;;;;8.40;5.13;;;;;;;-141.97;36.40;47546.00;4838722;29;20237;-77
2022/10/04 10:15:21;;;;;;;46.20;30.17;;;;;;;-141.97;35.39;47522.91;4838644;29;20328;-79
2022/10/04 10:18:21;;;;;;;13.00;6.80;;;;;;;-141.97;35.46;47624.78;4858213;29;20282;-80
2022/10/04 10:21:11;;;;;;;9.73;5.83;;;;;;;-141.97;34.93;47547.91;4955662;28;20184;-79
2022/10/04 10:24:10;;;;;;;7.50;4.67;;;;;;;-141.97;34.51;47505.63;4954061;28;20200;-80
2022/10/04 10:26:47;;;;;;;20.73;11.33;;;;;;;-141.97;34.46;47486.41;4913296;29;20342;-80
2022/10/04 10:29:25;;;;;;;116.87;56.53;;;;;;;-141.97;34.39;47526.75;4912680;29;20701;-80
2022/10/04 10:32:06;;;;;;;15.23;9.63;;;;;;;-141.97;34.61;47501.78;4913158;29;20360;-80
2022/10/04 10:35:08;;;;;;;14.87;8.97;;;;;;;-141.97;34.02;47549.84;4913107;29;20334;-80
2022/10/04 10:37:36;;;;;;;16.77;9.87;;;;;;;-141.97;33.88;47503.69;4912803;29;20245;-80
2022/10/04 10:40:33;;;;;;;20.60;11.00;;;;;;;-141.97;33.72;47511.38;4912181;29;20194;-80
2022/10/04 10:43:11;;;;;;;16.50;9.67;;;;;;;-141.97;33.58;47532.53;4913052;29;20178;-78
2022/10/04 10:45:51;;;;;;;10.30;6.30;;;;;;;-141.97;33.56;47507.53;4912763;29;20206;-80
2022/10/04 10:48:26;;;;;;;12.97;7.50;;;;;;;-141.97;33.86;47515.22;4912832;29;20182;-79
2022/10/04 10:51:02;;;;;;;10.00;5.30;;;;;;;-141.97;34.05;47559.44;4911764;29;20189;-79
2022/10/04 10:53:48;;;;;;;5.00;3.40;;;;;;;-141.97;34.00;47519.06;4918760;29;20192;-79
2022/10/04 10:56:44;;;;;;;11.33;8.37;;;;;;;-141.97;33.26;47497.94;4931659;29;20185;-79
2022/10/04 10:59:24;;;;;;;7.03;4.03;;;;;;;-141.97;32.74;47547.91;4919027;29;20241;-78
2022/10/04 11:02:23;;;;;;;5.33;3.50;;;;;;;-141.97;32.87;47549.84;4912322;29;20676;-79
2022/10/04 11:05:02;;;;;;;5.43;3.00;;;;;;;-141.97;32.70;47501.78;4950868;29;20233;-79
2022/10/04 11:07:38;;;;;;;5.30;4.00;;;;;;;-141.97;33.02;47547.91;4952664;28;20204;-79
2022/10/04 11:10:09;;;;;;;9.23;7.20;;;;;;;-141.97;32.67;47522.91;4952674;28;20219;-79
2022/10/04 11:12:45;;;;;;;3.43;2.60;;;;;;;-141.97;31.96;47503.69;4972133;28;20190;-79
2022/10/04 11:15:32;;;;;;;4.83;4.30;;;;;;;-141.97;31.57;47505.63;4972131;28;20327;-79
2022/10/04 11:18:34;;;;;;;5.07;2.30;;;;;;;-141.97;32.47;47497.94;4972345;28;20218;-80
2022/10/04 11:21:37;;;;;;;5.50;3.30;;;;;;;-141.97;32.39;47515.22;4971043;28;20268;-79
2022/10/04 11:24:24;;;;;;;5.57;4.37;;;;;;;-141.97;32.86;47499.84;4972113;28;20808;-79
2022/10/04 11:27:00;;;;;;;8.87;4.97;;;;;;;-141.97;32.97;47513.31;4970959;28;20211;-79
2022/10/04 11:29:59;;;;;;;8.30;3.00;;;;;;;-141.97;32.78;47499.84;4967771;28;20286;-79
2022/10/04 11:32:58;;;;;;;4.83;3.43;;;;;;;-141.97;32.65;47499.84;4950897;28;20527;-79
2022/10/04 11:35:36;;;;;;;5.30;3.13;;;;;;;-141.97;33.05;47503.69;4953551;28;20247;-79
2022/10/04 11:38:10;;;;;;;4.10;2.40;;;;;;;-141.97;32.94;47507.53;4952471;28;20169;-79
2022/10/04 11:41:04;;;;;;;6.53;2.97;;;;;;;-141.97;32.93;47503.69;4952078;28;20546;-79
2022/10/04 11:44:04;;;;;;;4.17;2.80;;;;;;;-141.97;33.30;47526.75;4962030;28;20191;-79
2022/10/04 11:46:54;;;;;;;9.10;3.00;;;;;;;-141.97;33.59;47519.06;4959940;28;20208;-80
2022/10/04 11:49:34;;;;;;;82.97;42.53;;;;;;;-141.97;34.30;47522.91;4952103;28;20184;-78
2022/10/04 11:52:10;;;;;;;10.83;6.30;;;;;;;-141.97;34.27;47532.53;4951994;28;20168;-78
2022/10/04 11:54:47;;;;;;;4.67;2.90;;;;;;;-141.97;34.67;47490.25;4959711;28;20243;-78
2022/10/04 11:57:24;;;;;;;4.60;2.60;;;;;;;-141.97;34.45;47503.69;4952149;28;20653;-78
2022/10/04 12:00:05;;;;;;;5.80;2.90;;;;;;;-141.97;34.14;47526.75;4942213;28;20321;-77
2022/10/04 12:02:43;;;;;;;4.30;2.50;;;;;;;-141.97;34.82;47511.38;4953035;28;20255;-78
2022/10/04 12:05:20;;;;;;;4.17;2.70;;;;;;;-141.97;34.75;47515.22;4955841;28;20205;-79
2022/10/04 12:07:51;;;;;;;5.00;3.23;;;;;;;-141.97;34.47;47503.69;4956481;28;20191;-78
2022/10/04 12:10:28;;;;;;;20.70;12.20;;;;;;;-141.97;34.22;47474.88;4957470;28;20180;-77
2022/10/04 12:12:53;;;;;;;7.93;5.17;;;;;;;-141.97;34.36;47526.75;4956292;28;20260;-77
2022/10/04 12:15:51;;;;;;;3.03;2.70;;;;;;;-141.97;34.85;47538.28;4955549;28;20267;-77
2022/10/04 12:18:34;;;;;;;3.17;2.87;;;;;;;-141.97;34.91;47517.16;4955963;28;20685;-78
2022/10/04 12:21:21;;;;;;;4.10;2.57;;;;;;;-141.97;34.75;47499.84;4955491;28;20177;-78
2022/10/04 12:24:05;;;;;;;3.70;3.23;;;;;;;-141.97;34.85;47511.38;4956031;28;20177;-78